Time;durP1;ratioP1;P1;durP2;ratioP2;P2;SDS_P1;SDS_P2;PMS_P1;PMS_P2;Temp;Humidity;BMP_temperature;BMP_pressure;BME280_temperature;BME280_humidity;BME280_pressure;Samples;Min_cycle;Max_cycle;Signal;HPM_P1;HPM_P2
2023/09/20 00:01:37;;;;;;;5.32;1.58;;;18.80;87.70;;;;;;5037048;28;20033;-79
2023/09/20 00:04:06;;;;;;;7.25;2.05;;;18.80;87.60;;;;;;5053723;28;20045;-79
2023/09/20 00:06:31;;;;;;;5.25;1.90;;;18.80;87.60;;;;;;5037501;28;20036;-79
2023/09/20 00:08:58;;;;;;;8.98;2.00;;;18.80;87.60;;;;;;5036899;28;20037;-79
2023/09/20 00:11:24;;;;;;;8.20;2.17;;;18.80;87.50;;;;;;5053462;28;20021;-79
2023/09/20 00:13:50;;;;;;;5.38;1.73;;;18.80;87.70;;;;;;5036899;28;20018;-79
2023/09/20 00:16:16;;;;;;;5.38;1.80;;;18.80;87.70;;;;;;5053446;28;20030;-80
2023/09/20 00:18:42;;;;;;;4.70;2.00;;;18.70;87.70;;;;;;5053352;28;20021;-79
2023/09/20 00:21:07;;;;;;;5.57;1.88;;;18.70;87.80;;;;;;5053288;28;20045;-79
2023/09/20 00:23:33;;;;;;;6.45;2.10;;;18.70;88.10;;;;;;5036694;28;20059;-79
2023/09/20 00:26:00;;;;;;;4.75;1.65;;;18.70;88.10;;;;;;5036795;28;20049;-79
2023/09/20 00:28:26;;;;;;;5.13;1.92;;;18.60;88.20;;;;;;5052961;28;20033;-79
2023/09/20 00:30:55;;;;;;;6.50;1.95;;;18.60;88.30;;;;;;5053175;28;20083;-79
2023/09/20 00:33:20;;;;;;;5.65;2.38;;;18.60;88.30;;;;;;5053026;28;20036;-79
2023/09/20 00:35:46;;;;;;;8.93;2.55;;;18.60;88.30;;;;;;5036339;28;20033;-79
2023/09/20 00:38:16;;;;;;;5.40;2.13;;;18.60;88.40;;;;;;5052656;28;20041;-79
2023/09/20 00:40:43;;;;;;;6.15;1.95;;;18.50;88.60;;;;;;5052960;28;20025;-79
2023/09/20 00:43:11;;;;;;;6.45;2.10;;;18.50;88.80;;;;;;5052699;28;20105;-79
2023/09/20 00:45:40;;;;;;;4.63;2.00;;;18.50;88.90;;;;;;5052838;28;20029;-79
2023/09/20 00:48:07;;;;;;;8.00;2.40;;;18.50;88.90;;;;;;5036713;28;20029;-79
2023/09/20 00:50:35;;;;;;;7.35;1.85;;;18.50;89.00;;;;;;5053702;28;20037;-79
2023/09/20 00:53:06;;;;;;;5.63;2.08;;;18.40;89.00;;;;;;5052779;28;20026;-79
2023/09/20 00:55:34;;;;;;;2.90;1.58;;;18.30;89.30;;;;;;5053687;28;20028;-79
2023/09/20 00:58:07;;;;;;;4.63;1.95;;;18.40;89.40;;;;;;5053574;28;20025;-79
2023/09/20 01:00:33;;;;;;;3.28;2.10;;;18.20;89.70;;;;;;5052729;28;20035;-79
2023/09/20 01:03:01;;;;;;;3.97;1.80;;;18.20;90.00;;;;;;5052546;28;20030;-79
2023/09/20 01:05:28;;;;;;;3.45;1.88;;;18.10;90.00;;;;;;5035986;28;20029;-79
2023/09/20 01:07:55;;;;;;;5.47;1.60;;;18.10;90.10;;;;;;5052348;28;20048;-79
2023/09/20 01:10:23;;;;;;;3.97;1.90;;;18.10;90.10;;;;;;5052343;28;20028;-79
2023/09/20 01:13:04;;;;;;;3.75;1.63;;;18.20;90.10;;;;;;5053383;28;20040;-79
2023/09/20 01:15:31;;;;;;;5.50;2.50;;;18.10;90.20;;;;;;5052421;28;20029;-80
2023/09/20 01:17:58;;;;;;;4.32;2.10;;;18.10;90.20;;;;;;5053321;28;20025;-79
2023/09/20 01:20:29;;;;;;;3.67;1.88;;;18.00;90.30;;;;;;5052319;28;20025;-80
2023/09/20 01:22:56;;;;;;;6.10;2.58;;;18.00;90.40;;;;;;5052300;28;20044;-79
2023/09/20 01:25:27;;;;;;;7.10;1.90;;;18.10;90.30;;;;;;5053192;28;20025;-80
2023/09/20 01:28:03;;;;;;;5.38;1.70;;;18.10;90.40;;;;;;5052164;28;20043;-80
2023/09/20 01:30:32;;;;;;;5.72;1.77;;;18.10;90.40;;;;;;5052204;28;20024;-79
2023/09/20 01:33:00;;;;;;;5.00;1.90;;;18.00;90.50;;;;;;5052165;28;20022;-79
2023/09/20 01:35:27;;;;;;;5.85;2.28;;;18.10;90.50;;;;;;5051997;28;20026;-79
2023/09/20 01:37:55;;;;;;;6.00;1.85;;;18.00;90.50;;;;;;5035794;28;20389;-79
2023/09/20 01:40:25;;;;;;;4.90;1.73;;;18.00;90.50;;;;;;5035817;28;20040;-79
2023/09/20 01:42:52;;;;;;;5.15;1.80;;;18.00;90.60;;;;;;5035728;28;20050;-79
2023/09/20 01:45:19;;;;;;;3.45;1.73;;;18.00;90.70;;;;;;5035618;28;20045;-79
2023/09/20 01:47:50;;;;;;;5.28;2.08;;;18.00;90.70;;;;;;5052957;28;20037;-79
2023/09/20 01:50:19;;;;;;;3.08;2.00;;;17.90;90.70;;;;;;5055756;28;20054;-79
2023/09/20 01:52:50;;;;;;;5.65;1.85;;;17.90;90.80;;;;;;5040000;28;20029;-79
2023/09/20 01:55:27;;;;;;;4.53;1.50;;;17.80;90.90;;;;;;5057204;28;20017;-79
2023/09/20 01:57:55;;;;;;;6.35;2.30;;;17.80;91.00;;;;;;5056258;28;20032;-79
2023/09/20 02:00:23;;;;;;;5.97;1.92;;;17.90;91.00;;;;;;5055846;28;20028;-79
2023/09/20 02:02:57;;;;;;;4.13;2.22;;;17.90;91.00;;;;;;5056823;28;20022;-79
2023/09/20 02:05:23;;;;;;;5.53;2.08;;;17.80;91.10;;;;;;5040421;28;20049;-79
2023/09/20 02:07:51;;;;;;;4.43;1.80;;;17.90;91.50;;;;;;5056713;28;20037;-79
2023/09/20 02:10:17;;;;;;;4.63;1.52;;;17.80;91.20;;;;;;5055882;28;20048;-79
2023/09/20 02:12:59;;;;;;;6.22;2.05;;;17.80;91.20;;;;;;5055678;28;20022;-79
2023/09/20 02:15:29;;;;;;;3.17;1.80;;;17.80;91.20;;;;;;5056693;28;20029;-79
2023/09/20 02:17:55;;;;;;;4.22;1.73;;;17.80;91.30;;;;;;5039348;28;20041;-79
2023/09/20 02:20:23;;;;;;;4.47;2.05;;;17.80;91.30;;;;;;5055480;28;20093;-79
2023/09/20 02:22:53;;;;;;;3.97;1.67;;;17.80;91.30;;;;;;5039326;28;20026;-79
2023/09/20 02:25:20;;;;;;;5.70;2.20;;;17.80;91.40;;;;;;5056614;28;20029;-79
2023/09/20 02:27:51;;;;;;;4.90;1.77;;;17.80;91.40;;;;;;5055398;28;20034;-79
2023/09/20 02:30:28;;;;;;;3.90;1.80;;;17.80;91.40;;;;;;5056376;28;20056;-79
2023/09/20 02:32:57;;;;;;;4.70;1.50;;;17.80;91.50;;;;;;5055369;28;20048;-79
2023/09/20 02:35:24;;;;;;;7.30;2.03;;;17.80;91.50;;;;;;5056241;28;20420;-79
2023/09/20 02:37:50;;;;;;;4.53;2.10;;;17.80;91.50;;;;;;5055274;28;20030;-79
2023/09/20 02:40:19;;;;;;;4.50;2.03;;;17.90;91.40;;;;;;5056219;28;20037;-79
2023/09/20 02:42:46;;;;;;;6.47;1.67;;;17.90;91.40;;;;;;5055266;28;20033;-80
2023/09/20 02:45:12;;;;;;;5.57;1.52;;;17.90;91.40;;;;;;5054989;28;20041;-79
2023/09/20 02:47:43;;;;;;;7.05;2.22;;;17.90;91.40;;;;;;5055122;28;20026;-79
2023/09/20 02:50:12;;;;;;;4.43;1.88;;;17.90;91.40;;;;;;5055330;28;20037;-79
2023/09/20 02:52:41;;;;;;;4.53;2.10;;;18.00;91.50;;;;;;5055993;28;20036;-79
2023/09/20 02:55:08;;;;;;;8.32;1.90;;;18.00;91.40;;;;;;5056062;28;20025;-79
2023/09/20 02:57:37;;;;;;;6.63;2.00;;;18.00;91.40;;;;;;5054890;28;20034;-79
2023/09/20 03:00:22;;;;;;;2.72;1.80;;;18.00;91.40;;;;;;5038314;28;20097;-80
2023/09/20 03:02:53;;;;;;;6.25;2.15;;;18.10;91.40;;;;;;5040946;28;20025;-79
2023/09/20 03:05:21;;;;;;;3.30;1.85;;;18.00;91.40;;;;;;5054934;28;20116;-80
2023/09/20 03:07:49;;;;;;;5.88;1.83;;;18.10;91.40;;;;;;5054664;28;20033;-79
2023/09/20 03:10:19;;;;;;;5.18;2.10;;;18.00;91.50;;;;;;5054684;28;20032;-79
2023/09/20 03:12:46;;;;;;;3.83;1.90;;;18.00;91.50;;;;;;5054892;28;20029;-78
2023/09/20 03:15:17;;;;;;;4.90;1.92;;;18.00;91.60;;;;;;5055577;28;20537;-79
2023/09/20 03:17:47;;;;;;;5.57;2.38;;;18.00;91.50;;;;;;5054580;28;20116;-79
2023/09/20 03:20:15;;;;;;;4.97;1.92;;;18.00;91.50;;;;;;5055631;28;20021;-79
2023/09/20 03:22:41;;;;;;;6.32;2.17;;;18.00;91.60;;;;;;5055398;28;20089;-79
2023/09/20 03:25:09;;;;;;;4.85;1.80;;;18.00;91.50;;;;;;5054323;28;20041;-79
2023/09/20 03:27:36;;;;;;;4.40;1.98;;;18.00;91.60;;;;;;5037977;28;20112;-79
2023/09/20 03:30:03;;;;;;;6.88;2.00;;;18.00;91.60;;;;;;5054373;28;20030;-78
2023/09/20 03:32:28;;;;;;;7.25;2.25;;;17.90;91.70;;;;;;5054165;28;20037;-78
2023/09/20 03:34:55;;;;;;;5.35;2.13;;;18.00;91.70;;;;;;5054187;28;20029;-79
2023/09/20 03:37:21;;;;;;;5.80;1.80;;;17.90;91.80;;;;;;5054245;28;20026;-79
2023/09/20 03:39:50;;;;;;;4.25;2.15;;;17.80;92.10;;;;;;5037671;28;20053;-79
2023/09/20 03:42:16;;;;;;;5.57;1.98;;;17.80;92.20;;;;;;5038198;28;20523;-79
2023/09/20 03:44:42;;;;;;;3.65;2.00;;;17.80;92.30;;;;;;5053819;28;20052;-79
2023/09/20 03:47:08;;;;;;;5.53;1.85;;;17.70;92.50;;;;;;5053849;28;20025;-79
2023/09/20 03:49:33;;;;;;;4.38;2.00;;;17.70;92.30;;;;;;5037418;28;20022;-79
2023/09/20 03:52:00;;;;;;;4.60;2.03;;;17.70;92.30;;;;;;5054853;28;20033;-79
2023/09/20 03:54:26;;;;;;;8.52;2.05;;;17.80;92.30;;;;;;5037303;28;20073;-79
2023/09/20 03:56:52;;;;;;;4.57;1.98;;;17.70;92.40;;;;;;5053776;28;20030;-79
2023/09/20 03:59:18;;;;;;;6.18;2.15;;;17.60;92.40;;;;;;5037299;28;20097;-79
2023/09/20 04:01:44;;;;;;;6.07;2.28;;;17.60;92.50;;;;;;5054656;28;20084;-79
2023/09/20 04:04:10;;;;;;;5.10;1.67;;;17.60;92.50;;;;;;5054622;28;20077;-79
2023/09/20 04:06:35;;;;;;;5.32;1.92;;;17.60;92.50;;;;;;5053702;28;20033;-78
2023/09/20 04:09:10;;;;;;;6.35;2.05;;;17.50;92.70;;;;;;5053469;28;20030;-79
2023/09/20 04:11:42;;;;;;;6.85;2.10;;;17.50;92.70;;;;;;5052947;28;20022;-79
2023/09/20 04:14:08;;;;;;;4.13;1.80;;;17.50;92.80;;;;;;5053701;28;20047;-78
2023/09/20 04:16:39;;;;;;;3.08;1.80;;;17.50;92.80;;;;;;5054398;28;20017;-79
2023/09/20 04:19:05;;;;;;;6.20;1.83;;;17.50;92.80;;;;;;5053469;28;20018;-79
2023/09/20 04:21:31;;;;;;;5.57;2.03;;;17.50;92.80;;;;;;5054335;28;20026;-79
2023/09/20 04:23:57;;;;;;;4.35;1.80;;;17.40;93.00;;;;;;5036781;28;20072;-78
2023/09/20 04:26:23;;;;;;;6.07;1.63;;;17.40;93.00;;;;;;5053234;28;20030;-79
2023/09/20 04:28:49;;;;;;;3.63;2.05;;;17.40;93.00;;;;;;5020394;28;20029;-79
2023/09/20 04:31:15;;;;;;;3.63;1.83;;;17.40;92.90;;;;;;5053129;28;20025;-79
2023/09/20 04:33:40;;;;;;;5.15;1.80;;;17.40;93.00;;;;;;5036699;28;20022;-79
2023/09/20 04:36:06;;;;;;;5.60;2.13;;;17.50;93.00;;;;;;5036589;28;20056;-79
2023/09/20 04:38:32;;;;;;;4.75;1.90;;;17.40;93.00;;;;;;5036585;28;20025;-79
2023/09/20 04:40:59;;;;;;;4.70;1.95;;;17.40;93.00;;;;;;5020121;28;20029;-80
2023/09/20 04:43:25;;;;;;;8.63;2.15;;;17.40;93.10;;;;;;5052639;28;20116;-79
2023/09/20 04:45:51;;;;;;;6.03;2.03;;;17.40;93.10;;;;;;5052964;28;20025;-79
2023/09/20 04:48:17;;;;;;;5.72;2.03;;;17.40;93.00;;;;;;5052828;28;20034;-79
2023/09/20 04:50:42;;;;;;;4.28;1.77;;;17.40;93.10;;;;;;5052820;28;20028;-79
2023/09/20 04:53:08;;;;;;;3.55;1.85;;;17.40;93.00;;;;;;5036319;28;20036;-78
2023/09/20 04:55:35;;;;;;;5.88;2.00;;;17.40;93.10;;;;;;5036255;28;20013;-79
2023/09/20 04:58:01;;;;;;;4.25;1.92;;;17.40;93.10;;;;;;5053670;28;20025;-79
2023/09/20 05:00:33;;;;;;;7.40;1.85;;;17.40;93.20;;;;;;5052728;28;20076;-79
2023/09/20 05:02:59;;;;;;;3.63;2.00;;;17.40;93.20;;;;;;5037314;28;20034;-79
2023/09/20 05:05:25;;;;;;;4.55;2.03;;;17.40;93.60;;;;;;5036119;28;20030;-78
2023/09/20 05:07:52;;;;;;;6.53;2.13;;;17.40;93.30;;;;;;5052498;28;20060;-79
2023/09/20 05:10:18;;;;;;;4.28;2.13;;;17.40;93.30;;;;;;5052461;28;20052;-79
2023/09/20 05:12:43;;;;;;;5.97;2.28;;;17.40;93.30;;;;;;5052477;28;20089;-79
2023/09/20 05:15:12;;;;;;;4.80;1.92;;;17.30;93.30;;;;;;5035992;28;20028;-79
2023/09/20 05:17:39;;;;;;;4.70;2.17;;;17.40;93.30;;;;;;5036408;28;20097;-80
2023/09/20 05:20:06;;;;;;;4.93;1.90;;;17.40;93.30;;;;;;5052444;28;20048;-79
2023/09/20 05:22:33;;;;;;;5.22;1.80;;;17.40;93.30;;;;;;5052594;28;20030;-80
2023/09/20 05:24:59;;;;;;;6.20;1.85;;;17.40;93.30;;;;;;5052476;28;20026;-80
2023/09/20 05:27:24;;;;;;;4.72;2.10;;;17.40;93.30;;;;;;5035927;28;20052;-79
2023/09/20 05:29:50;;;;;;;2.78;1.63;;;17.40;93.40;;;;;;5035848;28;20021;-79
2023/09/20 05:32:17;;;;;;;6.03;2.10;;;17.40;93.40;;;;;;5053260;28;20037;-78
2023/09/20 05:34:46;;;;;;;6.30;2.78;;;17.40;93.40;;;;;;5035708;28;20040;-78
2023/09/20 05:37:12;;;;;;;2.88;1.98;;;17.50;93.20;;;;;;5053245;28;20022;-79
2023/09/20 05:39:38;;;;;;;6.30;2.15;;;17.50;93.30;;;;;;5052093;28;20121;-79
2023/09/20 05:42:08;;;;;;;5.15;2.05;;;17.40;93.30;;;;;;5052217;28;20040;-78
2023/09/20 05:44:33;;;;;;;6.75;2.20;;;17.40;93.30;;;;;;5053020;28;20109;-78
2023/09/20 05:46:59;;;;;;;4.00;2.20;;;17.40;93.50;;;;;;5019179;28;20037;-79
2023/09/20 05:49:24;;;;;;;5.40;2.22;;;17.40;93.50;;;;;;5035943;28;20033;-79
2023/09/20 05:51:50;;;;;;;5.28;2.10;;;17.30;93.50;;;;;;5035643;28;20021;-78
2023/09/20 05:54:19;;;;;;;7.22;2.38;;;17.40;93.50;;;;;;5035613;28;20040;-79
2023/09/20 05:56:45;;;;;;;3.95;1.90;;;17.50;93.50;;;;;;5035900;28;20088;-79
2023/09/20 05:59:11;;;;;;;5.97;2.03;;;17.50;93.50;;;;;;5052909;28;20034;-78
2023/09/20 06:01:40;;;;;;;5.70;2.05;;;17.40;93.60;;;;;;5053047;28;20045;-78
2023/09/20 06:04:07;;;;;;;3.53;2.08;;;17.50;93.60;;;;;;5051942;28;20030;-78
2023/09/20 06:06:33;;;;;;;4.68;2.10;;;17.40;93.70;;;;;;5053042;28;20033;-79
2023/09/20 06:08:59;;;;;;;7.32;2.03;;;17.40;93.80;;;;;;5052885;28;20068;-78
2023/09/20 06:11:25;;;;;;;4.65;2.33;;;17.40;93.80;;;;;;5019163;28;20038;-78
2023/09/20 06:13:51;;;;;;;3.92;1.85;;;17.50;93.80;;;;;;5052844;28;20053;-78
2023/09/20 06:16:17;;;;;;;8.60;2.30;;;17.40;93.90;;;;;;5052821;28;20029;-78
2023/09/20 06:18:43;;;;;;;4.63;2.00;;;17.40;93.90;;;;;;5035350;28;20392;-78
2023/09/20 06:21:09;;;;;;;5.20;2.00;;;17.50;93.90;;;;;;5051742;28;20022;-77
2023/09/20 06:23:35;;;;;;;3.95;1.70;;;17.50;93.80;;;;;;5035204;28;20120;-77
2023/09/20 06:26:05;;;;;;;4.90;2.15;;;17.50;93.90;;;;;;5052629;28;20045;-78
2023/09/20 06:28:31;;;;;;;5.05;1.83;;;17.50;94.00;;;;;;5051603;28;20034;-78
2023/09/20 06:30:57;;;;;;;5.32;2.10;;;17.50;94.10;;;;;;5018883;28;20029;-78
2023/09/20 06:33:31;;;;;;;5.25;2.17;;;17.50;94.20;;;;;;5051587;28;20021;-78
2023/09/20 06:35:59;;;;;;;3.33;1.90;;;17.50;94.30;;;;;;5054728;28;20075;-78
2023/09/20 06:38:25;;;;;;;4.25;1.73;;;17.50;94.30;;;;;;5055370;28;20032;-78
2023/09/20 06:40:55;;;;;;;5.38;1.90;;;17.50;94.30;;;;;;5055164;28;20029;-78
2023/09/20 06:43:42;;;;;;;4.80;2.05;;;17.60;94.40;;;;;;5055798;28;20041;-80
2023/09/20 06:46:09;;;;;;;5.90;2.15;;;17.60;94.40;;;;;;5038465;28;20056;-78
2023/09/20 06:48:37;;;;;;;6.00;2.22;;;17.60;94.40;;;;;;5054878;28;20037;-79
2023/09/20 06:51:03;;;;;;;6.05;2.25;;;17.70;94.50;;;;;;5055068;28;20022;-78
2023/09/20 06:53:30;;;;;;;4.43;2.20;;;17.70;94.40;;;;;;5054855;28;20017;-79
2023/09/20 06:56:11;;;;;;;5.22;2.15;;;17.70;94.40;;;;;;5056039;28;20025;-78
2023/09/20 06:58:40;;;;;;;7.32;1.98;;;17.80;94.30;;;;;;5056122;28;20049;-78
2023/09/20 07:01:29;;;;;;;6.72;2.42;;;17.80;94.30;;;;;;5038562;28;20060;-77
2023/09/20 07:04:26;;;;;;;6.00;2.17;;;17.80;94.30;;;;;;5035310;28;20038;-79
2023/09/20 07:07:03;;;;;;;6.18;2.00;;;17.80;94.40;;;;;;5055285;28;20037;-80
2023/09/20 07:09:31;;;;;;;8.95;1.88;;;17.80;94.40;;;;;;5055795;28;20038;-80
2023/09/20 07:12:01;;;;;;;5.88;2.40;;;17.90;94.40;;;;;;5054729;28;20029;-80
2023/09/20 07:14:31;;;;;;;4.53;2.05;;;17.90;94.50;;;;;;5055521;28;20029;-80
2023/09/20 07:16:57;;;;;;;26.58;11.65;;;18.00;94.50;;;;;;5055791;28;20032;-81
2023/09/20 07:19:26;;;;;;;5.20;2.90;;;18.00;94.60;;;;;;5055728;28;20451;-80
2023/09/20 07:21:52;;;;;;;5.07;2.35;;;18.00;94.60;;;;;;5055440;28;20090;-79
2023/09/20 07:24:24;;;;;;;5.38;2.58;;;18.10;94.30;;;;;;5054365;28;20021;-79
2023/09/20 07:26:56;;;;;;;9.73;2.67;;;18.10;94.40;;;;;;5038649;28;20033;-81
2023/09/20 07:29:24;;;;;;;5.93;2.40;;;18.20;94.40;;;;;;5054215;28;20056;-80
2023/09/20 07:31:49;;;;;;;5.88;2.47;;;18.10;94.00;;;;;;5037943;28;20022;-81
2023/09/20 07:34:16;;;;;;;5.40;2.60;;;18.20;94.20;;;;;;5054037;28;20051;-81
2023/09/20 07:37:12;;;;;;;4.30;2.10;;;18.20;94.20;;;;;;5038120;28;20028;-81
2023/09/20 07:39:38;;;;;;;6.13;2.38;;;18.30;94.10;;;;;;5052409;28;20369;-81
2023/09/20 07:48:27;;;;;;;6.45;1.90;;;18.40;93.70;;;;;;5049233;28;20044;-80
2023/09/20 07:51:20;;;;;;;3.65;2.10;;;18.40;93.80;;;;;;5037529;28;20041;-80
2023/09/20 07:54:28;;;;;;;5.47;2.22;;;18.40;93.80;;;;;;5038537;28;20060;-80
2023/09/20 07:56:54;;;;;;;5.40;2.10;;;18.60;93.90;;;;;;5041503;28;20037;-79
2023/09/20 07:59:35;;;;;;;;;;;;;;;;;;;;;
2023/09/20 08:02:48;;;;;;;3.42;1.77;;;18.70;93.40;;;;;;5054685;28;20045;-79
2023/09/20 08:04:54;;;;;;;3.70;2.20;;;18.80;93.70;;;;;;5044041;28;20030;-80
2023/09/20 08:07:29;;;;;;;5.75;2.03;;;18.80;93.40;;;;;;5037686;28;20017;-78
2023/09/20 08:09:54;;;;;;;5.95;2.20;;;18.90;93.00;;;;;;5053712;28;20036;-80
2023/09/20 08:12:20;;;;;;;3.53;1.80;;;19.00;93.20;;;;;;5037028;28;20033;-79
2023/09/20 08:14:46;;;;;;;4.38;2.38;;;19.00;92.90;;;;;;5037284;28;20085;-80
2023/09/20 08:19:56;;;;;;;4.93;2.05;;;19.10;92.60;;;;;;5039876;28;20032;-79
2023/09/20 08:22:22;;;;;;;4.03;2.20;;;19.10;92.60;;;;;;5036330;28;20053;-79
2023/09/20 09:00:51;;;;;;;5.40;1.95;;;19.80;90.60;;;;;;5073762;28;20055;-79
2023/09/20 09:03:17;;;;;;;4.32;2.03;;;19.80;90.70;;;;;;5073533;28;20017;-79
2023/09/20 09:12:16;;;;;;;6.27;2.57;;;19.90;90.60;;;;;;5073538;28;20027;-76
2023/09/20 09:14:52;;;;;;;5.82;2.28;;;20.00;90.80;;;;;;5039736;28;20468;-75
2023/09/20 09:17:18;;;;;;;5.03;2.15;;;20.00;90.80;;;;;;5073268;28;20017;-74
2023/09/20 09:19:43;;;;;;;5.70;2.40;;;20.00;90.40;;;;;;5039172;28;20036;-75
2023/09/20 09:22:25;;;;;;;3.40;2.28;;;20.00;90.00;;;;;;5039086;28;20100;-75
2023/09/20 09:24:53;;;;;;;6.78;2.50;;;20.10;90.90;;;;;;5055814;28;20040;-75
2023/09/20 09:27:19;;;;;;;4.63;2.10;;;20.20;90.70;;;;;;5073010;28;20025;-75
2023/09/20 09:29:46;;;;;;;4.88;2.28;;;20.30;90.30;;;;;;5073136;28;20080;-75
2023/09/20 09:32:13;;;;;;;5.55;2.13;;;20.20;90.30;;;;;;5055397;28;20025;-74
2023/09/20 09:34:43;;;;;;;4.80;2.17;;;20.20;89.90;;;;;;5055612;28;20100;-75
2023/09/20 09:37:11;;;;;;;5.53;2.17;;;20.10;90.00;;;;;;5056168;28;20028;-75
2023/09/20 09:39:39;;;;;;;4.35;2.30;;;20.00;90.60;;;;;;5073037;28;20072;-76
2023/09/20 09:42:06;;;;;;;6.63;2.40;;;20.00;90.80;;;;;;5055460;28;20049;-76
2023/09/20 09:44:55;;;;;;;2.40;1.52;;;20.10;90.30;;;;;;5072777;28;20036;-74
2023/09/20 09:47:21;;;;;;;3.78;1.65;;;20.00;90.40;;;;;;5056380;28;20094;-75
2023/09/20 09:49:50;;;;;;;7.28;1.83;;;20.00;90.30;;;;;;5055280;28;20039;-75
2023/09/20 09:52:18;;;;;;;4.13;1.67;;;20.10;90.90;;;;;;5072920;28;20037;-75
2023/09/20 09:54:46;;;;;;;5.22;2.40;;;20.10;90.40;;;;;;5072822;28;20025;-75
2023/09/20 09:57:12;;;;;;;4.10;1.92;;;20.20;90.70;;;;;;5055310;28;20025;-75
2023/09/20 09:59:39;;;;;;;4.15;1.90;;;20.20;90.80;;;;;;5055364;28;20029;-76
2023/09/20 10:02:17;;;;;;;3.10;1.52;;;20.30;90.40;;;;;;5055561;28;20017;-75
2023/09/20 10:04:53;;;;;;;4.10;2.00;;;20.40;90.50;;;;;;5072849;28;20017;-74
2023/09/20 10:07:22;;;;;;;4.78;1.83;;;20.50;89.70;;;;;;5055074;28;20025;-77
2023/09/20 10:09:52;;;;;;;5.22;1.88;;;20.60;90.30;;;;;;5073949;28;20037;-77
2023/09/20 10:12:20;;;;;;;3.20;2.13;;;20.60;90.00;;;;;;5059060;28;20024;-77
2023/09/20 10:14:47;;;;;;;4.93;1.90;;;20.50;89.30;;;;;;5058708;28;20021;-77
2023/09/20 10:17:20;;;;;;;3.72;1.65;;;20.50;89.20;;;;;;5042146;28;20049;-77
2023/09/20 10:19:53;;;;;;;2.85;1.55;;;20.50;89.40;;;;;;5042205;28;20046;-76
2023/09/20 10:22:21;;;;;;;5.35;1.50;;;20.50;88.90;;;;;;5058508;28;20025;-77
2023/09/20 10:24:47;;;;;;;2.80;1.60;;;20.60;89.10;;;;;;5058786;28;20025;-77
2023/09/20 10:27:22;;;;;;;4.38;1.55;;;20.60;89.30;;;;;;5058512;28;20025;-76
2023/09/20 10:30:09;;;;;;;4.63;1.80;;;20.70;89.40;;;;;;5076401;28;20033;-77
2023/09/20 10:32:56;;;;;;;3.08;1.27;;;20.70;89.20;;;;;;5076407;28;20025;-77
2023/09/20 10:35:29;;;;;;;5.00;1.40;;;20.70;89.00;;;;;;5042386;28;20495;-77
2023/09/20 10:38:04;;;;;;;2.55;1.40;;;20.70;89.60;;;;;;5058730;28;20033;-77
2023/09/20 10:41:00;;;;;;;3.20;1.45;;;20.80;89.20;;;;;;5058520;28;20044;-76
2023/09/20 10:43:34;;;;;;;5.18;1.58;;;20.90;88.60;;;;;;5050064;28;20049;-76
2023/09/20 10:46:10;;;;;;;2.92;1.45;;;20.90;88.40;;;;;;5075822;28;20415;-77
2023/09/20 10:48:48;;;;;;;2.97;1.20;;;20.90;88.10;;;;;;5076174;28;20029;-76
2023/09/20 10:51:39;;;;;;;2.38;1.20;;;20.90;88.10;;;;;;5058414;28;20017;-77
2023/09/20 10:54:25;;;;;;;3.55;1.30;;;21.00;88.20;;;;;;5076001;28;20021;-77
2023/09/20 10:56:51;;;;;;;2.33;1.25;;;21.10;88.90;;;;;;5058140;28;20013;-77
2023/09/20 10:59:25;;;;;;;1.95;0.95;;;21.10;88.20;;;;;;5058262;28;20032;-77
2023/09/20 11:01:58;;;;;;;3.33;1.17;;;21.20;88.80;;;;;;5058080;28;20093;-77
2023/09/20 11:04:25;;;;;;;2.85;1.27;;;21.30;88.50;;;;;;5041925;28;20033;-77
2023/09/20 11:06:52;;;;;;;4.03;1.25;;;21.50;87.90;;;;;;5075663;28;20040;-76
2023/09/20 11:09:20;;;;;;;3.63;1.20;;;21.50;86.20;;;;;;5075559;28;20478;-77
2023/09/20 11:11:47;;;;;;;1.88;1.10;;;21.60;86.80;;;;;;5058432;28;20037;-77
2023/09/20 11:14:13;;;;;;;4.70;1.17;;;21.60;85.60;;;;;;5041295;28;20025;-76
2023/09/20 11:16:43;;;;;;;2.67;1.00;;;21.60;84.90;;;;;;5075615;28;20048;-78
2023/09/20 11:19:12;;;;;;;2.10;0.88;;;21.50;85.10;;;;;;5075496;28;20025;-78
2023/09/20 11:21:41;;;;;;;2.90;1.20;;;21.40;86.40;;;;;;5057643;28;20025;-78
2023/09/20 11:24:12;;;;;;;3.03;1.00;;;21.40;86.80;;;;;;5057820;28;20037;-77
2023/09/20 11:26:43;;;;;;;3.97;1.60;;;21.40;85.60;;;;;;5075270;28;20028;-77
2023/09/20 11:29:09;;;;;;;3.70;1.00;;;21.50;86.50;;;;;;5057452;28;20032;-77
2023/09/20 11:31:37;;;;;;;4.18;1.38;;;21.50;86.10;;;;;;5057517;28;20112;-77
2023/09/20 11:34:04;;;;;;;3.00;1.20;;;21.50;86.10;;;;;;5040855;28;20040;-77
2023/09/20 11:36:37;;;;;;;1.85;1.15;;;21.60;86.20;;;;;;5057428;28;20088;-77
2023/09/20 11:39:05;;;;;;;2.15;1.23;;;21.60;86.00;;;;;;5075183;28;20033;-77
2023/09/20 11:41:32;;;;;;;2.72;1.35;;;21.60;85.70;;;;;;5057310;28;20028;-77
2023/09/20 11:43:58;;;;;;;1.58;0.98;;;21.60;86.40;;;;;;5075028;28;20020;-77
2023/09/20 11:46:28;;;;;;;2.63;1.00;;;21.50;85.10;;;;;;5037246;28;20053;-77
2023/09/20 11:49:02;;;;;;;2.95;1.00;;;21.50;84.70;;;;;;5037744;28;20089;-76
2023/09/20 11:51:34;;;;;;;3.80;1.13;;;21.40;85.50;;;;;;5037544;28;20045;-76
2023/09/20 11:54:00;;;;;;;;;;;21.50;86.40;;;;;;5055363;28;20020;-77
2023/09/20 11:56:32;;;;;;;2.97;1.00;;;21.50;86.10;;;;;;5037233;28;19908;-77
2023/09/20 11:59:06;;;;;;;1.02;0.70;;;21.50;85.80;;;;;;5037469;28;20038;-78
2023/09/20 12:01:33;;;;;;;2.65;1.00;;;21.40;84.30;;;;;;5037022;28;20030;-78
2023/09/20 12:04:03;;;;;;;1.50;1.15;;;21.30;84.90;;;;;;5053670;28;20053;-77
2023/09/20 12:06:29;;;;;;;4.25;1.08;;;21.30;85.30;;;;;;5053651;28;20033;-77
2023/09/20 12:08:55;;;;;;;1.73;1.10;;;21.30;85.00;;;;;;5036935;28;20030;-77
2023/09/20 12:11:22;;;;;;;3.50;1.13;;;21.30;85.30;;;;;;5036960;28;20028;-77
2023/09/20 12:13:48;;;;;;;1.88;1.25;;;21.20;85.50;;;;;;5036868;28;20032;-77
2023/09/20 12:16:16;;;;;;;1.10;1.00;;;21.20;85.00;;;;;;5036861;28;20018;-76
2023/09/20 12:18:42;;;;;;;3.78;1.25;;;21.20;83.60;;;;;;5053426;28;20025;-77
2023/09/20 12:21:08;;;;;;;1.90;0.90;;;21.30;84.30;;;;;;5036721;28;20033;-77
2023/09/20 12:23:40;;;;;;;3.95;1.20;;;21.30;84.60;;;;;;5036802;28;20025;-77
2023/09/20 12:26:11;;;;;;;1.65;1.00;;;21.40;85.00;;;;;;5053423;28;20412;-77
2023/09/20 12:28:38;;;;;;;2.42;1.02;;;21.50;83.60;;;;;;5054052;28;20035;-78
2023/09/20 12:31:04;;;;;;;3.97;1.20;;;21.50;83.40;;;;;;5036577;28;20037;-77
2023/09/20 12:33:30;;;;;;;2.58;1.00;;;21.60;83.30;;;;;;5035888;28;20018;-77
2023/09/20 12:36:00;;;;;;;1.73;1.00;;;21.50;82.70;;;;;;5036569;28;20022;-77
2023/09/20 12:38:29;;;;;;;2.33;1.27;;;21.40;83.40;;;;;;5036428;28;20033;-77
2023/09/20 12:40:58;;;;;;;2.40;1.17;;;21.40;83.00;;;;;;5036395;28;20037;-77
2023/09/20 12:43:25;;;;;;;3.13;1.30;;;21.40;84.10;;;;;;5053830;28;20033;-78
2023/09/20 12:45:52;;;;;;;2.42;1.25;;;21.50;82.80;;;;;;5048576;28;20040;-77
2023/09/20 12:48:18;;;;;;;2.40;0.90;;;21.50;82.80;;;;;;5056533;28;20033;-77
2023/09/20 12:50:46;;;;;;;5.18;1.55;;;21.50;82.60;;;;;;5073773;28;20043;-77
2023/09/20 12:53:12;;;;;;;1.77;1.00;;;21.50;84.10;;;;;;5055985;28;20025;-77
2023/09/20 12:55:39;;;;;;;2.35;1.30;;;21.60;82.30;;;;;;5056147;28;20036;-77
2023/09/20 12:58:06;;;;;;;9.40;1.83;;;21.60;83.50;;;;;;5073631;28;20029;-77
2023/09/20 13:00:36;;;;;;;3.15;1.60;;;21.50;82.30;;;;;;5055852;28;20044;-77
2023/09/20 13:03:05;;;;;;;6.68;1.77;;;21.50;82.90;;;;;;5040023;28;20032;-78
2023/09/20 13:05:31;;;;;;;2.60;1.30;;;21.60;83.00;;;;;;5039838;28;20025;-77
2023/09/20 13:07:57;;;;;;;2.55;1.35;;;21.70;83.20;;;;;;5039265;28;20120;-78
2023/09/20 13:10:23;;;;;;;4.93;1.40;;;21.80;81.30;;;;;;5022962;28;20051;-77
2023/09/20 13:12:49;;;;;;;5.30;1.45;;;21.80;82.20;;;;;;5073421;28;20029;-77
2023/09/20 13:15:17;;;;;;;5.25;1.77;;;21.80;81.20;;;;;;5073335;28;20033;-77
2023/09/20 13:17:44;;;;;;;1.98;1.00;;;21.90;82.60;;;;;;5055787;28;20112;-77
2023/09/20 13:20:13;;;;;;;4.75;1.38;;;22.10;83.10;;;;;;5073356;28;20021;-78
2023/09/20 13:22:40;;;;;;;3.65;1.25;;;22.10;81.30;;;;;;5056166;28;20032;-78
2023/09/20 13:25:08;;;;;;;3.30;1.27;;;22.20;80.60;;;;;;5055606;28;20025;-77
2023/09/20 13:27:37;;;;;;;2.28;1.25;;;22.10;79.10;;;;;;5039317;28;20059;-76
2023/09/20 13:30:09;;;;;;;3.00;1.35;;;22.00;80.40;;;;;;5055373;28;20025;-78
2023/09/20 13:32:35;;;;;;;3.20;1.23;;;22.10;80.70;;;;;;5056859;28;20085;-77
2023/09/20 13:35:02;;;;;;;3.95;1.30;;;22.10;80.20;;;;;;5055713;28;20040;-77
2023/09/20 13:37:28;;;;;;;2.53;1.20;;;22.10;79.90;;;;;;5073087;28;20029;-77
2023/09/20 13:39:54;;;;;;;3.80;1.20;;;22.00;79.60;;;;;;5055522;28;20060;-77
2023/09/20 13:42:21;;;;;;;3.22;1.60;;;21.90;80.50;;;;;;5055614;28;20018;-77
2023/09/20 13:44:50;;;;;;;2.38;1.27;;;21.90;81.40;;;;;;5056681;28;20048;-78
2023/09/20 13:47:16;;;;;;;4.45;1.00;;;21.90;81.00;;;;;;5043398;28;20021;-77
2023/09/20 13:49:42;;;;;;;2.85;1.20;;;21.80;81.60;;;;;;5059723;28;20036;-77